createdAt,value
2022-11-20T00:03:29.752Z,-4.44
2022-11-20T00:08:30.615Z,-4.43
2022-11-20T00:13:32.924Z,-4.45
2022-11-20T00:18:34.986Z,-4.65
2022-11-20T00:23:35.998Z,-4.57
2022-11-20T00:28:38.270Z,-4.55
2022-11-20T00:33:39.191Z,-4.53
2022-11-20T00:38:40.025Z,-4.56
2022-11-20T00:43:42.460Z,-4.61
2022-11-20T00:48:43.393Z,-4.63
2022-11-20T00:53:44.704Z,-4.61
2022-11-20T00:58:49.377Z,-4.63
2022-11-20T01:03:52.325Z,-4.70
2022-11-20T01:08:55.564Z,-4.70
2022-11-20T01:13:59.740Z,-4.71
2022-11-20T01:19:02.257Z,-4.68
2022-11-20T01:24:04.176Z,-4.76
2022-11-20T01:29:07.256Z,-4.75
2022-11-20T01:34:11.050Z,-4.79
2022-11-20T01:39:14.386Z,-4.86
2022-11-20T01:44:19.600Z,-4.86
2022-11-20T01:49:25.880Z,-4.95
2022-11-20T01:54:31.883Z,-4.94
2022-11-20T01:59:34.542Z,-4.98
2022-11-20T02:04:35.543Z,-5.02
2022-11-20T02:09:36.316Z,-4.71
2022-11-20T02:14:38.470Z,-4.99
2022-11-20T02:19:39.270Z,-5.11
2022-11-20T02:24:41.833Z,-5.12
2022-11-20T02:29:47.266Z,-5.20
2022-11-20T02:34:48.136Z,-5.20
2022-11-20T02:39:53.275Z,-5.28
2022-11-20T02:44:54.056Z,-5.24
2022-11-20T02:49:54.856Z,-5.28
2022-11-20T02:54:56.990Z,-5.35
2022-11-20T02:59:57.902Z,-5.31
2022-11-20T03:04:58.742Z,-5.30
2022-11-20T03:10:00.903Z,-5.34
2022-11-20T03:15:01.708Z,-5.35
2022-11-20T03:20:02.518Z,-5.36
2022-11-20T03:25:05.429Z,-5.39
2022-11-20T03:30:07.492Z,-5.44
2022-11-20T03:35:09.085Z,-5.47
2022-11-20T03:40:12.117Z,-5.44
2022-11-20T03:45:13.304Z,-5.38
2022-11-20T03:50:15.392Z,-5.38
2022-11-20T03:55:17.699Z,-5.43
2022-11-20T04:00:18.702Z,-5.53
2022-11-20T04:05:19.524Z,-5.53
2022-11-20T04:10:22.194Z,-5.56
2022-11-20T04:15:22.989Z,-5.60
2022-11-20T04:20:23.830Z,-5.68
2022-11-20T04:25:25.937Z,-5.66
2022-11-20T04:30:26.722Z,-5.69
2022-11-20T04:35:27.576Z,-5.73
2022-11-20T04:40:29.838Z,-5.77
2022-11-20T04:45:30.643Z,-5.84
2022-11-20T04:50:31.436Z,-5.77
2022-11-20T04:55:33.548Z,-5.73
2022-11-20T05:00:34.622Z,-5.77
2022-11-20T05:05:35.943Z,-5.78
2022-11-20T05:10:38.141Z,-5.81
2022-11-20T05:15:38.896Z,-5.84
2022-11-20T05:20:39.781Z,-5.82
2022-11-20T05:25:41.922Z,-5.80
2022-11-20T05:30:42.753Z,-5.85
2022-11-20T05:35:43.598Z,-5.86
2022-11-20T05:40:45.751Z,-5.92
2022-11-20T05:45:54.133Z,-5.89
2022-11-20T05:50:54.950Z,-5.94
2022-11-20T05:56:01.131Z,-5.95
2022-11-20T06:01:07.784Z,-5.98
2022-11-20T06:06:09.064Z,-5.95
2022-11-20T06:11:13.411Z,-5.99
2022-11-20T06:16:16.683Z,-6.01
2022-11-20T06:21:19.056Z,-5.91
2022-11-20T06:26:23.327Z,-6.03
2022-11-20T06:31:26.432Z,-6.00
2022-11-20T06:36:27.206Z,-5.94
2022-11-20T06:41:29.955Z,-5.92
2022-11-20T06:46:30.751Z,-5.92
2022-11-20T06:51:31.548Z,-5.87
2022-11-20T06:56:33.775Z,-5.83
2022-11-20T07:01:34.688Z,-5.80
2022-11-20T07:06:35.507Z,-5.77
2022-11-20T07:11:37.726Z,-5.75
2022-11-20T07:16:38.496Z,-5.69
2022-11-20T07:21:39.321Z,-5.54
2022-11-20T07:26:41.449Z,-5.48
2022-11-20T07:31:44.826Z,-5.41
2022-11-20T07:36:45.666Z,-5.36
2022-11-20T07:41:47.865Z,-5.25
2022-11-20T07:46:48.723Z,-5.02
2022-11-20T07:51:52.397Z,-4.84
2022-11-20T07:56:55.967Z,-4.45
2022-11-20T08:01:57.288Z,-4.49
2022-11-20T08:06:58.290Z,-4.49
2022-11-20T08:12:17.704Z,-4.29
2022-11-20T08:17:18.566Z,-4.19
2022-11-20T08:22:19.618Z,-4.06
2022-11-20T08:27:21.931Z,-3.92
2022-11-20T08:32:22.753Z,-3.83
2022-11-20T08:37:23.678Z,-3.64
2022-11-20T08:42:25.868Z,-3.55
2022-11-20T08:47:26.703Z,-3.35
2022-11-20T08:52:27.484Z,-3.24
2022-11-20T08:57:29.723Z,-3.11
2022-11-20T09:02:30.556Z,-2.91
2022-11-20T09:07:32.209Z,-2.88
2022-11-20T09:12:34.411Z,-2.66
2022-11-20T09:17:35.221Z,-2.57
2022-11-20T09:22:36.084Z,-2.45
2022-11-20T09:27:38.336Z,-2.29
2022-11-20T09:32:40.954Z,-2.08
2022-11-20T09:37:41.933Z,-1.97
2022-11-20T09:42:49.650Z,-1.82
2022-11-20T09:48:12.996Z,-1.68
2022-11-20T09:53:18.263Z,-1.54
2022-11-20T09:58:30.445Z,-1.40
2022-11-20T10:03:42.833Z,-1.34
2022-11-20T10:08:47.792Z,-1.29
2022-11-20T10:14:01.733Z,-0.98
2022-11-20T10:19:20.720Z,-0.89
2022-11-20T10:24:46.974Z,-0.79
2022-11-20T10:30:01.530Z,-0.70
2022-11-20T10:35:06.870Z,-0.58
2022-11-20T10:40:22.594Z,-0.51
2022-11-20T10:45:39.050Z,-0.32
2022-11-20T10:50:46.699Z,0.15
2022-11-20T10:55:52.688Z,0.79
2022-11-20T11:01:05.721Z,0.50
2022-11-20T11:06:14.382Z,0.60
2022-11-20T11:11:23.561Z,0.66
2022-11-20T11:16:28.042Z,0.88
2022-11-20T11:21:28.845Z,0.94
2022-11-20T11:26:30.028Z,1.06
2022-11-20T11:31:33.829Z,1.30
2022-11-20T11:36:36.394Z,1.37
2022-11-20T11:41:37.406Z,0.86
2022-11-20T11:46:41.355Z,0.66
2022-11-20T11:51:55.188Z,0.69
2022-11-20T11:56:56.369Z,0.45
2022-11-20T12:02:02.914Z,0.51
2022-11-20T12:07:38.924Z,0.53
2022-11-20T12:12:39.098Z,0.61
2022-11-20T12:17:41.339Z,0.58
2022-11-20T12:22:52.486Z,0.52
2022-11-20T12:28:14.516Z,0.87
2022-11-20T12:33:32.579Z,1.02
2022-11-20T12:38:49.649Z,1.00
2022-11-20T12:44:25.028Z,0.73
2022-11-20T12:49:38.865Z,0.80
2022-11-20T12:55:05.150Z,0.86
2022-11-20T13:00:19.966Z,0.92
2022-11-20T13:05:26.594Z,0.92
2022-11-20T13:10:36.434Z,1.01
2022-11-20T13:15:51.346Z,0.92
2022-11-20T13:20:53.740Z,0.81
2022-11-20T13:26:06.405Z,0.80
2022-11-20T13:31:07.988Z,0.85
2022-11-20T13:36:25.248Z,0.83
2022-11-20T13:41:32.106Z,0.81
2022-11-20T13:46:40.488Z,0.78
2022-11-20T13:51:46.911Z,0.79
2022-11-20T13:57:01.080Z,0.81
2022-11-20T14:02:02.620Z,0.81
2022-11-20T14:07:08.312Z,0.71
2022-11-20T14:12:17.744Z,0.81
2022-11-20T14:17:21.379Z,0.80
2022-11-20T14:22:25.135Z,0.76
2022-11-20T14:27:26.037Z,0.74
2022-11-20T14:32:31.478Z,0.72
2022-11-20T14:37:36.264Z,0.65
2022-11-20T14:42:38.365Z,0.39
2022-11-20T14:47:39.430Z,0.22
2022-11-20T14:52:52.828Z,0.02
2022-11-20T14:57:57.923Z,-0.19
2022-11-20T15:02:59.056Z,-0.20
2022-11-20T15:08:12.594Z,-0.26
2022-11-20T15:13:15.551Z,-0.37
2022-11-20T15:18:18.815Z,-0.46
2022-11-20T15:23:22.076Z,-0.58
2022-11-20T15:28:29.479Z,-0.62
2022-11-20T15:33:30.482Z,-0.74
2022-11-20T15:38:32.736Z,-0.86
2022-11-20T15:43:33.699Z,-0.88
2022-11-20T15:48:41.999Z,-1.07
2022-11-20T15:53:46.903Z,-1.08
2022-11-20T15:58:47.837Z,-1.19
2022-11-20T16:03:49.379Z,-1.18
2022-11-20T16:08:51.645Z,-1.12
2022-11-20T16:14:10.809Z,-1.02
2022-11-20T16:19:12.931Z,-1.02
2022-11-20T16:24:16.511Z,-0.95
2022-11-20T16:29:17.368Z,-1.12
2022-11-20T16:34:19.581Z,-1.08
2022-11-20T16:39:23.915Z,-1.16
2022-11-20T16:44:25.601Z,-1.29
2022-11-20T16:49:26.950Z,-1.37
2022-11-20T16:54:29.269Z,-1.36
2022-11-20T16:59:30.081Z,-1.40
2022-11-20T17:04:30.876Z,-1.52
2022-11-20T17:09:33.023Z,-1.67
2022-11-20T17:14:33.894Z,-1.74
2022-11-20T17:19:34.711Z,-1.77
2022-11-20T17:24:37.197Z,-1.86
2022-11-20T17:29:42.018Z,-1.96
2022-11-20T17:34:43.036Z,-1.96
2022-11-20T17:39:45.602Z,-2.01
2022-11-20T17:44:47.399Z,-2.00
2022-11-20T17:49:48.239Z,-2.11
2022-11-20T17:54:52.567Z,-2.22
2022-11-20T17:59:53.538Z,-2.31
2022-11-20T18:04:54.695Z,-2.31
2022-11-20T18:09:56.870Z,-2.36
2022-11-20T18:14:57.730Z,-2.35
2022-11-20T18:20:31.069Z,-1.61
2022-11-20T18:25:21.080Z,-1.77
2022-11-20T18:30:21.919Z,-2.15
2022-11-20T18:35:22.742Z,-2.35
2022-11-20T18:40:24.991Z,-2.46
2022-11-20T18:45:25.758Z,-2.42
2022-11-20T18:50:26.732Z,-2.45
2022-11-20T18:55:28.934Z,-2.56
2022-11-20T19:00:29.839Z,-2.53
2022-11-20T19:05:30.731Z,-2.60
2022-11-20T19:10:32.882Z,-2.63
2022-11-20T19:15:36.986Z,-2.66
2022-11-20T19:20:37.834Z,-2.74
2022-11-20T19:25:40.084Z,-2.82
2022-11-20T19:30:41.756Z,-2.84
2022-11-20T19:35:42.527Z,-2.82
2022-11-20T19:40:44.956Z,-2.79
2022-11-20T19:45:45.793Z,-2.84
2022-11-20T19:50:46.685Z,-2.80
2022-11-20T19:55:57.895Z,-2.83
2022-11-20T20:00:58.794Z,-2.79
2022-11-20T20:06:02.629Z,-2.82
2022-11-20T20:11:12.845Z,-2.82
2022-11-20T20:16:16.038Z,-2.84
2022-11-20T20:21:18.727Z,-2.83
2022-11-20T20:26:21.633Z,-2.71
2022-11-20T20:31:24.537Z,-2.58
2022-11-20T20:36:26.212Z,-2.47
2022-11-20T20:41:28.406Z,-2.32
2022-11-20T20:46:29.178Z,-2.16
2022-11-20T20:51:30.251Z,-2.06
2022-11-20T20:56:32.519Z,-1.97
2022-11-20T21:01:33.604Z,-1.93
2022-11-20T21:06:34.446Z,-1.95
2022-11-20T21:11:36.622Z,-1.91
2022-11-20T21:16:43.865Z,-1.91
2022-11-20T21:22:03.871Z,-1.99
2022-11-20T21:27:07.356Z,-1.89
2022-11-20T21:32:08.157Z,-1.83
2022-11-20T21:37:08.918Z,-1.72
2022-11-20T21:42:11.148Z,-1.62
2022-11-20T21:47:13.333Z,-1.56
2022-11-20T21:52:14.144Z,-1.06
2022-11-20T21:57:16.357Z,-0.74
2022-11-20T22:02:17.337Z,-0.93
2022-11-20T22:07:18.303Z,-1.18
2022-11-20T22:12:20.947Z,-1.26
2022-11-20T22:17:42.589Z,-1.30
2022-11-20T22:22:43.385Z,-1.21
2022-11-20T22:27:47.423Z,-1.21
2022-11-20T22:32:48.183Z,-1.14
2022-11-20T22:37:50.382Z,-1.10
2022-11-20T22:42:52.522Z,-1.14
2022-11-20T22:47:53.413Z,-1.15
2022-11-20T22:52:54.406Z,-1.09
2022-11-20T22:57:57.417Z,-0.95
2022-11-20T23:02:58.205Z,-0.94
2022-11-20T23:07:58.997Z,-1.04
2022-11-20T23:13:01.186Z,-1.05
2022-11-20T23:18:01.952Z,-0.97
2022-11-20T23:23:02.719Z,-1.08
2022-11-20T23:28:05.130Z,-1.09
2022-11-20T23:33:06.096Z,-1.19
2022-11-20T23:38:07.027Z,-1.12
2022-11-20T23:43:18.246Z,-1.03
2022-11-20T23:48:20.174Z,-1.06
2022-11-20T23:53:22.024Z,-1.06
2022-11-20T23:58:26.028Z,-1.07
